Ucluelet, Canada
Current Conditions -  °F | °C
As of 7:00 AM on Thursday 23 Oct 2014 (Local Time) from CYAZ Reporting Station
Rain Showers Rain Showers  
Wind Chill: 46°   Ceiling: 4000
Heat Index: 46°   Visibility: 8mi
Dew Point: 45°   Wind: 3mph
Humidity: 93%   Direction: 320°NW
Pressure: 29.64"   Gusts: NA
Location:  48.94°N, 125.54°W
Report Text: CYAZ 231400Z 32003KT 8SM -SHRA FEW016 SCT024CB OVC040 08/07 A2964 RMK CF2CB2SC4 CB OFSHR WND ESTD SLP037
Loading
Personal Weather Stations






























Interactive Weather Map
Tropical Storm Tracking
New forecast layout! Learn more

10-Day Weather Forecast

Advertisements
Track Severe Weather on mobile